sensor_id;sensor_type;location;lat;lon;timestamp;P1;durP1;ratioP1;P2;durP2;ratioP2
20535;SDS011;10426;49.420;8.390;2023-04-07T00:02:28;8.20;;;7.50;;
20535;SDS011;10426;49.420;8.390;2023-04-07T00:04:56;7.72;;;7.03;;
20535;SDS011;10426;49.420;8.390;2023-04-07T00:07:23;8.27;;;7.45;;
20535;SDS011;10426;49.420;8.390;2023-04-07T00:09:50;8.45;;;7.75;;
20535;SDS011;10426;49.420;8.390;2023-04-07T00:12:18;7.88;;;7.28;;
20535;SDS011;10426;49.420;8.390;2023-04-07T00:14:44;7.47;;;6.88;;
20535;SDS011;10426;49.420;8.390;2023-04-07T00:17:11;7.78;;;7.18;;
20535;SDS011;10426;49.420;8.390;2023-04-07T00:19:38;8.00;;;7.30;;
20535;SDS011;10426;49.420;8.390;2023-04-07T00:22:04;8.07;;;7.47;;
20535;SDS011;10426;49.420;8.390;2023-04-07T00:24:31;8.07;;;7.47;;
20535;SDS011;10426;49.420;8.390;2023-04-07T00:26:57;7.70;;;7.15;;
20535;SDS011;10426;49.420;8.390;2023-04-07T00:29:26;8.65;;;7.85;;
20535;SDS011;10426;49.420;8.390;2023-04-07T00:31:53;7.97;;;7.38;;
20535;SDS011;10426;49.420;8.390;2023-04-07T00:34:20;8.27;;;7.57;;
20535;SDS011;10426;49.420;8.390;2023-04-07T00:36:46;7.78;;;7.18;;
20535;SDS011;10426;49.420;8.390;2023-04-07T00:39:16;7.82;;;7.22;;
20535;SDS011;10426;49.420;8.390;2023-04-07T00:41:43;7.78;;;7.18;;
20535;SDS011;10426;49.420;8.390;2023-04-07T00:44:09;8.23;;;7.63;;
20535;SDS011;10426;49.420;8.390;2023-04-07T00:46:38;8.00;;;7.30;;
20535;SDS011;10426;49.420;8.390;2023-04-07T00:49:04;7.70;;;7.10;;
20535;SDS011;10426;49.420;8.390;2023-04-07T00:51:31;7.72;;;7.10;;
20535;SDS011;10426;49.420;8.390;2023-04-07T00:53:58;8.00;;;7.30;;
20535;SDS011;10426;49.420;8.390;2023-04-07T00:56:25;7.50;;;6.90;;
20535;SDS011;10426;49.420;8.390;2023-04-07T00:58:52;7.47;;;6.88;;
20535;SDS011;10426;49.420;8.390;2023-04-07T01:01:20;7.95;;;7.35;;
20535;SDS011;10426;49.420;8.390;2023-04-07T01:03:51;7.85;;;7.22;;
20535;SDS011;10426;49.420;8.390;2023-04-07T01:06:19;8.20;;;7.47;;
20535;SDS011;10426;49.420;8.390;2023-04-07T01:08:49;7.50;;;6.90;;
20535;SDS011;10426;49.420;8.390;2023-04-07T01:11:19;8.02;;;7.32;;
20535;SDS011;10426;49.420;8.390;2023-04-07T01:13:48;7.95;;;7.35;;
20535;SDS011;10426;49.420;8.390;2023-04-07T01:16:15;8.30;;;7.70;;
20535;SDS011;10426;49.420;8.390;2023-04-07T01:18:42;8.20;;;7.60;;
20535;SDS011;10426;49.420;8.390;2023-04-07T01:21:13;7.70;;;7.10;;
20535;SDS011;10426;49.420;8.390;2023-04-07T01:24:00;8.27;;;7.55;;
20535;SDS011;10426;49.420;8.390;2023-04-07T01:26:29;8.50;;;7.80;;
20535;SDS011;10426;49.420;8.390;2023-04-07T01:29:02;8.05;;;7.30;;
20535;SDS011;10426;49.420;8.390;2023-04-07T01:31:31;9.00;;;8.20;;
20535;SDS011;10426;49.420;8.390;2023-04-07T01:33:58;8.00;;;7.40;;
20535;SDS011;10426;49.420;8.390;2023-04-07T01:36:26;8.07;;;7.45;;
20535;SDS011;10426;49.420;8.390;2023-04-07T01:38:53;8.57;;;7.78;;
20535;SDS011;10426;49.420;8.390;2023-04-07T01:41:20;8.20;;;7.60;;
20535;SDS011;10426;49.420;8.390;2023-04-07T01:43:48;8.27;;;7.57;;
20535;SDS011;10426;49.420;8.390;2023-04-07T01:46:15;8.47;;;7.67;;
20535;SDS011;10426;49.420;8.390;2023-04-07T01:48:43;8.63;;;7.90;;
20535;SDS011;10426;49.420;8.390;2023-04-07T01:51:10;8.77;;;8.07;;
20535;SDS011;10426;49.420;8.390;2023-04-07T01:53:41;8.45;;;7.85;;
20535;SDS011;10426;49.420;8.390;2023-04-07T01:56:08;9.02;;;8.32;;
20535;SDS011;10426;49.420;8.390;2023-04-07T01:58:35;9.18;;;8.38;;
20535;SDS011;10426;49.420;8.390;2023-04-07T02:01:01;8.55;;;7.85;;
20535;SDS011;10426;49.420;8.390;2023-04-07T02:03:29;8.50;;;7.70;;
20535;SDS011;10426;49.420;8.390;2023-04-07T02:05:59;8.65;;;7.95;;
20535;SDS011;10426;49.420;8.390;2023-04-07T02:08:28;8.93;;;8.13;;
20535;SDS011;10426;49.420;8.390;2023-04-07T02:10:56;8.70;;;8.00;;
20535;SDS011;10426;49.420;8.390;2023-04-07T02:13:24;8.70;;;8.00;;
20535;SDS011;10426;49.420;8.390;2023-04-07T02:15:51;9.10;;;8.30;;
20535;SDS011;10426;49.420;8.390;2023-04-07T02:18:20;8.88;;;8.07;;
20535;SDS011;10426;49.420;8.390;2023-04-07T02:20:47;9.00;;;8.17;;
20535;SDS011;10426;49.420;8.390;2023-04-07T02:23:17;8.98;;;8.18;;
20535;SDS011;10426;49.420;8.390;2023-04-07T02:25:44;9.10;;;8.30;;
20535;SDS011;10426;49.420;8.390;2023-04-07T02:28:10;9.13;;;8.32;;
20535;SDS011;10426;49.420;8.390;2023-04-07T02:30:37;8.93;;;8.23;;
20535;SDS011;10426;49.420;8.390;2023-04-07T02:33:04;8.63;;;7.93;;
20535;SDS011;10426;49.420;8.390;2023-04-07T02:35:30;8.85;;;8.15;;
20535;SDS011;10426;49.420;8.390;2023-04-07T02:37:57;9.60;;;8.70;;
20535;SDS011;10426;49.420;8.390;2023-04-07T02:40:25;9.30;;;8.57;;
20535;SDS011;10426;49.420;8.390;2023-04-07T02:42:51;9.25;;;8.55;;
20535;SDS011;10426;49.420;8.390;2023-04-07T02:45:18;9.52;;;8.73;;
20535;SDS011;10426;49.420;8.390;2023-04-07T02:47:45;10.05;;;9.27;;
20535;SDS011;10426;49.420;8.390;2023-04-07T02:50:11;10.00;;;9.10;;
20535;SDS011;10426;49.420;8.390;2023-04-07T02:52:38;10.25;;;9.43;;
20535;SDS011;10426;49.420;8.390;2023-04-07T02:55:05;10.20;;;9.30;;
20535;SDS011;10426;49.420;8.390;2023-04-07T02:57:34;9.90;;;9.13;;
20535;SDS011;10426;49.420;8.390;2023-04-07T03:00:01;9.80;;;9.02;;
20535;SDS011;10426;49.420;8.390;2023-04-07T03:02:27;9.60;;;8.90;;
20535;SDS011;10426;49.420;8.390;2023-04-07T03:04:54;9.75;;;8.95;;
20535;SDS011;10426;49.420;8.390;2023-04-07T03:07:21;10.05;;;9.18;;
20535;SDS011;10426;49.420;8.390;2023-04-07T03:09:48;9.45;;;8.65;;
20535;SDS011;10426;49.420;8.390;2023-04-07T03:12:15;9.65;;;8.75;;
20535;SDS011;10426;49.420;8.390;2023-04-07T03:14:42;9.75;;;8.93;;
20535;SDS011;10426;49.420;8.390;2023-04-07T03:17:09;9.82;;;9.02;;
20535;SDS011;10426;49.420;8.390;2023-04-07T03:19:36;9.75;;;8.95;;
20535;SDS011;10426;49.420;8.390;2023-04-07T03:22:02;9.17;;;8.47;;
20535;SDS011;10426;49.420;8.390;2023-04-07T03:24:29;9.32;;;8.50;;
20535;SDS011;10426;49.420;8.390;2023-04-07T03:26:56;9.73;;;8.95;;
20535;SDS011;10426;49.420;8.390;2023-04-07T03:29:22;9.55;;;8.75;;
20535;SDS011;10426;49.420;8.390;2023-04-07T03:31:50;10.20;;;9.40;;
20535;SDS011;10426;49.420;8.390;2023-04-07T03:34:17;10.27;;;9.38;;
20535;SDS011;10426;49.420;8.390;2023-04-07T03:36:43;9.35;;;8.65;;
20535;SDS011;10426;49.420;8.390;2023-04-07T03:39:10;9.95;;;9.25;;
20535;SDS011;10426;49.420;8.390;2023-04-07T03:41:37;10.00;;;9.20;;
20535;SDS011;10426;49.420;8.390;2023-04-07T03:44:04;10.00;;;9.20;;
20535;SDS011;10426;49.420;8.390;2023-04-07T03:46:31;10.17;;;9.37;;
20535;SDS011;10426;49.420;8.390;2023-04-07T03:48:59;11.23;;;10.23;;
20535;SDS011;10426;49.420;8.390;2023-04-07T03:51:25;10.80;;;9.90;;
20535;SDS011;10426;49.420;8.390;2023-04-07T03:53:52;11.10;;;10.05;;
20535;SDS011;10426;49.420;8.390;2023-04-07T03:56:19;10.07;;;9.17;;
20535;SDS011;10426;49.420;8.390;2023-04-07T03:58:46;10.43;;;9.63;;
20535;SDS011;10426;49.420;8.390;2023-04-07T04:01:13;10.52;;;9.70;;
20535;SDS011;10426;49.420;8.390;2023-04-07T04:03:40;10.43;;;9.55;;
20535;SDS011;10426;49.420;8.390;2023-04-07T04:06:08;10.23;;;9.40;;
20535;SDS011;10426;49.420;8.390;2023-04-07T04:08:35;10.80;;;9.80;;
20535;SDS011;10426;49.420;8.390;2023-04-07T04:11:01;9.55;;;8.80;;
20535;SDS011;10426;49.420;8.390;2023-04-07T04:13:28;10.45;;;9.57;;
20535;SDS011;10426;49.420;8.390;2023-04-07T04:15:54;10.13;;;9.32;;
20535;SDS011;10426;49.420;8.390;2023-04-07T04:18:21;10.52;;;9.63;;
20535;SDS011;10426;49.420;8.390;2023-04-07T04:20:48;10.40;;;9.43;;
20535;SDS011;10426;49.420;8.390;2023-04-07T04:23:16;10.20;;;9.40;;
20535;SDS011;10426;49.420;8.390;2023-04-07T04:25:43;10.35;;;9.40;;
20535;SDS011;10426;49.420;8.390;2023-04-07T04:28:09;10.63;;;9.73;;
20535;SDS011;10426;49.420;8.390;2023-04-07T04:30:36;10.65;;;9.80;;
20535;SDS011;10426;49.420;8.390;2023-04-07T04:33:02;10.75;;;9.85;;
20535;SDS011;10426;49.420;8.390;2023-04-07T04:35:29;11.32;;;10.32;;
20535;SDS011;10426;49.420;8.390;2023-04-07T04:37:56;10.48;;;9.57;;
20535;SDS011;10426;49.420;8.390;2023-04-07T04:40:24;11.00;;;10.00;;
20535;SDS011;10426;49.420;8.390;2023-04-07T04:42:50;10.40;;;9.60;;
20535;SDS011;10426;49.420;8.390;2023-04-07T04:45:17;10.60;;;9.70;;
20535;SDS011;10426;49.420;8.390;2023-04-07T04:47:44;9.73;;;9.02;;
20535;SDS011;10426;49.420;8.390;2023-04-07T04:50:10;10.15;;;9.32;;
20535;SDS011;10426;49.420;8.390;2023-04-07T04:52:37;10.02;;;9.25;;
20535;SDS011;10426;49.420;8.390;2023-04-07T04:55:04;10.83;;;9.83;;
20535;SDS011;10426;49.420;8.390;2023-04-07T04:57:32;10.52;;;9.63;;
20535;SDS011;10426;49.420;8.390;2023-04-07T05:00:00;10.15;;;9.35;;
20535;SDS011;10426;49.420;8.390;2023-04-07T05:02:27;10.02;;;9.13;;
20535;SDS011;10426;49.420;8.390;2023-04-07T05:04:53;10.38;;;9.50;;
20535;SDS011;10426;49.420;8.390;2023-04-07T05:07:20;10.70;;;9.80;;
20535;SDS011;10426;49.420;8.390;2023-04-07T05:09:47;10.10;;;9.30;;
20535;SDS011;10426;49.420;8.390;2023-04-07T05:12:13;11.25;;;10.18;;
20535;SDS011;10426;49.420;8.390;2023-04-07T05:14:41;10.80;;;9.85;;
20535;SDS011;10426;49.420;8.390;2023-04-07T05:17:08;10.88;;;9.98;;
20535;SDS011;10426;49.420;8.390;2023-04-07T05:19:35;10.68;;;9.77;;
20535;SDS011;10426;49.420;8.390;2023-04-07T05:22:01;11.05;;;10.00;;
20535;SDS011;10426;49.420;8.390;2023-04-07T05:24:28;10.88;;;9.88;;
20535;SDS011;10426;49.420;8.390;2023-04-07T05:26:55;10.30;;;9.50;;
20535;SDS011;10426;49.420;8.390;2023-04-07T05:29:22;10.15;;;9.25;;
20535;SDS011;10426;49.420;8.390;2023-04-07T05:31:50;10.80;;;9.95;;
20535;SDS011;10426;49.420;8.390;2023-04-07T05:34:16;10.55;;;9.65;;
20535;SDS011;10426;49.420;8.390;2023-04-07T05:36:43;10.63;;;9.77;;
20535;SDS011;10426;49.420;8.390;2023-04-07T05:39:10;9.68;;;8.77;;
20535;SDS011;10426;49.420;8.390;2023-04-07T05:41:36;9.85;;;9.05;;
20535;SDS011;10426;49.420;8.390;2023-04-07T05:44:03;10.90;;;10.00;;
20535;SDS011;10426;49.420;8.390;2023-04-07T05:46:30;10.27;;;9.47;;
20535;SDS011;10426;49.420;8.390;2023-04-07T05:48:58;10.27;;;9.38;;
20535;SDS011;10426;49.420;8.390;2023-04-07T05:51:25;9.73;;;8.93;;
20535;SDS011;10426;49.420;8.390;2023-04-07T05:53:52;9.93;;;9.23;;
20535;SDS011;10426;49.420;8.390;2023-04-07T05:56:18;10.13;;;9.25;;
20535;SDS011;10426;49.420;8.390;2023-04-07T05:58:45;10.82;;;9.80;;
20535;SDS011;10426;49.420;8.390;2023-04-07T06:01:12;10.63;;;9.73;;
20535;SDS011;10426;49.420;8.390;2023-04-07T06:03:39;10.85;;;9.73;;
20535;SDS011;10426;49.420;8.390;2023-04-07T06:06:07;10.05;;;9.25;;
20535;SDS011;10426;49.420;8.390;2023-04-07T06:08:33;12.70;;;10.27;;
20535;SDS011;10426;49.420;8.390;2023-04-07T06:11:00;12.98;;;9.48;;
20535;SDS011;10426;49.420;8.390;2023-04-07T06:13:27;9.63;;;8.82;;
20535;SDS011;10426;49.420;8.390;2023-04-07T06:15:53;10.40;;;9.40;;
20535;SDS011;10426;49.420;8.390;2023-04-07T06:18:21;10.32;;;9.52;;
20535;SDS011;10426;49.420;8.390;2023-04-07T06:20:48;10.13;;;9.23;;
20535;SDS011;10426;49.420;8.390;2023-04-07T06:23:16;9.98;;;9.13;;
20535;SDS011;10426;49.420;8.390;2023-04-07T06:25:42;10.20;;;9.35;;
20535;SDS011;10426;49.420;8.390;2023-04-07T06:28:09;9.88;;;9.15;;
20535;SDS011;10426;49.420;8.390;2023-04-07T06:30:36;10.63;;;9.63;;
20535;SDS011;10426;49.420;8.390;2023-04-07T06:33:04;10.50;;;9.70;;
20535;SDS011;10426;49.420;8.390;2023-04-07T06:35:31;11.50;;;10.50;;
20535;SDS011;10426;49.420;8.390;2023-04-07T06:37:57;10.98;;;10.07;;
20535;SDS011;10426;49.420;8.390;2023-04-07T06:40:25;11.07;;;10.17;;
20535;SDS011;10426;49.420;8.390;2023-04-07T06:42:52;11.07;;;10.07;;
20535;SDS011;10426;49.420;8.390;2023-04-07T06:45:19;10.67;;;9.77;;
20535;SDS011;10426;49.420;8.390;2023-04-07T06:47:45;10.90;;;10.05;;
20535;SDS011;10426;49.420;8.390;2023-04-07T06:50:12;10.65;;;9.82;;
20535;SDS011;10426;49.420;8.390;2023-04-07T06:52:39;10.23;;;9.32;;
20535;SDS011;10426;49.420;8.390;2023-04-07T06:55:06;10.45;;;9.48;;
20535;SDS011;10426;49.420;8.390;2023-04-07T06:57:34;10.02;;;9.27;;
20535;SDS011;10426;49.420;8.390;2023-04-07T07:00:01;10.65;;;9.65;;
20535;SDS011;10426;49.420;8.390;2023-04-07T07:02:28;9.52;;;8.80;;
20535;SDS011;10426;49.420;8.390;2023-04-07T07:04:54;10.20;;;9.40;;
20535;SDS011;10426;49.420;8.390;2023-04-07T07:07:22;10.40;;;9.50;;
20535;SDS011;10426;49.420;8.390;2023-04-07T07:09:50;10.73;;;9.82;;
20535;SDS011;10426;49.420;8.390;2023-04-07T07:12:16;9.90;;;9.20;;
20535;SDS011;10426;49.420;8.390;2023-04-07T07:14:44;10.30;;;9.40;;
20535;SDS011;10426;49.420;8.390;2023-04-07T07:17:11;10.38;;;9.48;;
20535;SDS011;10426;49.420;8.390;2023-04-07T07:19:38;10.57;;;9.77;;
20535;SDS011;10426;49.420;8.390;2023-04-07T07:22:05;10.45;;;9.60;;
20535;SDS011;10426;49.420;8.390;2023-04-07T07:24:31;10.10;;;9.30;;
20535;SDS011;10426;49.420;8.390;2023-04-07T07:26:58;10.17;;;9.37;;
20535;SDS011;10426;49.420;8.390;2023-04-07T07:29:26;10.23;;;9.35;;
20535;SDS011;10426;49.420;8.390;2023-04-07T07:31:54;9.55;;;8.85;;
20535;SDS011;10426;49.420;8.390;2023-04-07T07:34:20;9.80;;;9.00;;
20535;SDS011;10426;49.420;8.390;2023-04-07T07:36:47;10.05;;;9.23;;
20535;SDS011;10426;49.420;8.390;2023-04-07T07:39:14;10.30;;;9.43;;
20535;SDS011;10426;49.420;8.390;2023-04-07T07:41:40;9.52;;;8.68;;
20535;SDS011;10426;49.420;8.390;2023-04-07T07:44:07;9.60;;;8.80;;
20535;SDS011;10426;49.420;8.390;2023-04-07T07:46:34;9.70;;;8.85;;
20535;SDS011;10426;49.420;8.390;2023-04-07T07:49:01;9.57;;;8.77;;
20535;SDS011;10426;49.420;8.390;2023-04-07T07:51:29;9.50;;;8.80;;
20535;SDS011;10426;49.420;8.390;2023-04-07T07:53:56;8.95;;;8.25;;
20535;SDS011;10426;49.420;8.390;2023-04-07T07:56:22;9.20;;;8.40;;
20535;SDS011;10426;49.420;8.390;2023-04-07T07:58:49;8.50;;;7.75;;
20535;SDS011;10426;49.420;8.390;2023-04-07T08:01:16;8.47;;;7.77;;
20535;SDS011;10426;49.420;8.390;2023-04-07T08:03:42;8.23;;;7.63;;
20535;SDS011;10426;49.420;8.390;2023-04-07T08:06:11;8.47;;;7.77;;
20535;SDS011;10426;49.420;8.390;2023-04-07T08:08:37;8.18;;;7.50;;
20535;SDS011;10426;49.420;8.390;2023-04-07T08:11:04;8.13;;;7.40;;
20535;SDS011;10426;49.420;8.390;2023-04-07T08:13:31;7.88;;;7.18;;
20535;SDS011;10426;49.420;8.390;2023-04-07T08:15:57;7.13;;;6.60;;
20535;SDS011;10426;49.420;8.390;2023-04-07T08:18:24;6.70;;;6.13;;
20535;SDS011;10426;49.420;8.390;2023-04-07T08:20:51;6.47;;;6.00;;
20535;SDS011;10426;49.420;8.390;2023-04-07T08:23:19;6.35;;;5.82;;
20535;SDS011;10426;49.420;8.390;2023-04-07T08:25:46;6.40;;;5.90;;
20535;SDS011;10426;49.420;8.390;2023-04-07T08:28:12;6.57;;;5.97;;
20535;SDS011;10426;49.420;8.390;2023-04-07T08:30:39;6.05;;;5.10;;
20535;SDS011;10426;49.420;8.390;2023-04-07T08:33:05;6.53;;;5.93;;
20535;SDS011;10426;49.420;8.390;2023-04-07T08:35:32;6.05;;;5.60;;
20535;SDS011;10426;49.420;8.390;2023-04-07T08:37:59;5.65;;;5.18;;
20535;SDS011;10426;49.420;8.390;2023-04-07T08:40:28;5.70;;;5.10;;
20535;SDS011;10426;49.420;8.390;2023-04-07T08:42:55;6.43;;;5.73;;
20535;SDS011;10426;49.420;8.390;2023-04-07T08:45:23;5.80;;;5.30;;
20535;SDS011;10426;49.420;8.390;2023-04-07T08:47:51;5.43;;;4.93;;
20535;SDS011;10426;49.420;8.390;2023-04-07T08:50:19;6.13;;;4.90;;
20535;SDS011;10426;49.420;8.390;2023-04-07T08:52:48;5.70;;;5.10;;
20535;SDS011;10426;49.420;8.390;2023-04-07T08:55:15;6.50;;;5.90;;
20535;SDS011;10426;49.420;8.390;2023-04-07T08:57:43;7.25;;;6.53;;
20535;SDS011;10426;49.420;8.390;2023-04-07T09:00:11;6.63;;;5.85;;
20535;SDS011;10426;49.420;8.390;2023-04-07T09:02:38;8.25;;;7.45;;
20535;SDS011;10426;49.420;8.390;2023-04-07T09:05:06;11.77;;;10.10;;
20535;SDS011;10426;49.420;8.390;2023-04-07T09:07:34;6.47;;;5.88;;
20535;SDS011;10426;49.420;8.390;2023-04-07T09:10:00;6.00;;;5.40;;
20535;SDS011;10426;49.420;8.390;2023-04-07T09:12:28;5.72;;;5.13;;
20535;SDS011;10426;49.420;8.390;2023-04-07T09:14:56;7.82;;;5.75;;
20535;SDS011;10426;49.420;8.390;2023-04-07T09:17:23;6.87;;;5.73;;
20535;SDS011;10426;49.420;8.390;2023-04-07T09:19:50;6.97;;;5.65;;
20535;SDS011;10426;49.420;8.390;2023-04-07T09:22:25;6.10;;;5.50;;
20535;SDS011;10426;49.420;8.390;2023-04-07T09:25:07;6.97;;;5.45;;
20535;SDS011;10426;49.420;8.390;2023-04-07T09:27:34;6.65;;;5.60;;
20535;SDS011;10426;49.420;8.390;2023-04-07T09:30:10;5.95;;;5.13;;
20535;SDS011;10426;49.420;8.390;2023-04-07T09:32:39;6.97;;;5.05;;
20535;SDS011;10426;49.420;8.390;2023-04-07T09:35:06;6.95;;;5.20;;
20535;SDS011;10426;49.420;8.390;2023-04-07T09:37:33;6.18;;;5.10;;
20535;SDS011;10426;49.420;8.390;2023-04-07T09:40:00;4.40;;;4.05;;
20535;SDS011;10426;49.420;8.390;2023-04-07T09:42:26;3.40;;;3.10;;
20535;SDS011;10426;49.420;8.390;2023-04-07T09:44:57;2.40;;;2.20;;
20535;SDS011;10426;49.420;8.390;2023-04-07T09:47:28;3.10;;;2.72;;
20535;SDS011;10426;49.420;8.390;2023-04-07T09:49:54;2.90;;;2.70;;
20535;SDS011;10426;49.420;8.390;2023-04-07T09:52:25;2.80;;;2.60;;
20535;SDS011;10426;49.420;8.390;2023-04-07T09:54:55;3.25;;;2.60;;
20535;SDS011;10426;49.420;8.390;2023-04-07T09:57:22;3.25;;;3.00;;
20535;SDS011;10426;49.420;8.390;2023-04-07T09:59:49;2.80;;;2.60;;
20535;SDS011;10426;49.420;8.390;2023-04-07T10:02:16;3.10;;;2.90;;
20535;SDS011;10426;49.420;8.390;2023-04-07T10:04:44;2.40;;;2.30;;
20535;SDS011;10426;49.420;8.390;2023-04-07T10:07:10;2.27;;;2.10;;
20535;SDS011;10426;49.420;8.390;2023-04-07T10:09:37;2.10;;;2.00;;
20535;SDS011;10426;49.420;8.390;2023-04-07T10:12:04;2.38;;;2.20;;
20535;SDS011;10426;49.420;8.390;2023-04-07T10:14:32;2.70;;;2.50;;
20535;SDS011;10426;49.420;8.390;2023-04-07T10:17:00;2.58;;;2.38;;
20535;SDS011;10426;49.420;8.390;2023-04-07T10:19:28;2.40;;;2.20;;
20535;SDS011;10426;49.420;8.390;2023-04-07T10:21:58;2.43;;;2.33;;
20535;SDS011;10426;49.420;8.390;2023-04-07T10:24:29;2.88;;;2.40;;
20535;SDS011;10426;49.420;8.390;2023-04-07T10:26:59;2.30;;;2.20;;
20535;SDS011;10426;49.420;8.390;2023-04-07T10:29:28;2.10;;;2.00;;
20535;SDS011;10426;49.420;8.390;2023-04-07T10:31:55;1.73;;;1.63;;
20535;SDS011;10426;49.420;8.390;2023-04-07T10:37:11;1.40;;;1.40;;
20535;SDS011;10426;49.420;8.390;2023-04-07T10:39:38;1.48;;;1.48;;
20535;SDS011;10426;49.420;8.390;2023-04-07T10:42:05;1.20;;;1.20;;
20535;SDS011;10426;49.420;8.390;2023-04-07T10:44:44;1.10;;;1.10;;
20535;SDS011;10426;49.420;8.390;2023-04-07T10:47:12;1.40;;;1.30;;
20535;SDS011;10426;49.420;8.390;2023-04-07T10:49:39;1.30;;;1.30;;
20535;SDS011;10426;49.420;8.390;2023-04-07T10:52:27;1.13;;;1.13;;
20535;SDS011;10426;49.420;8.390;2023-04-07T10:57:38;1.10;;;1.10;;
20535;SDS011;10426;49.420;8.390;2023-04-07T11:00:25;1.20;;;1.10;;
20535;SDS011;10426;49.420;8.390;2023-04-07T11:02:51;1.48;;;1.48;;
20535;SDS011;10426;49.420;8.390;2023-04-07T11:05:19;1.60;;;1.60;;
20535;SDS011;10426;49.420;8.390;2023-04-07T11:07:51;1.80;;;1.80;;
20535;SDS011;10426;49.420;8.390;2023-04-07T11:10:19;1.40;;;1.40;;
20535;SDS011;10426;49.420;8.390;2023-04-07T11:12:57;1.33;;;1.33;;
20535;SDS011;10426;49.420;8.390;2023-04-07T11:15:24;1.40;;;1.40;;
20535;SDS011;10426;49.420;8.390;2023-04-07T11:20:43;1.50;;;1.50;;
20535;SDS011;10426;49.420;8.390;2023-04-07T11:23:11;1.27;;;1.20;;
20535;SDS011;10426;49.420;8.390;2023-04-07T11:25:39;1.20;;;1.05;;
20535;SDS011;10426;49.420;8.390;2023-04-07T11:28:08;1.30;;;1.20;;
20535;SDS011;10426;49.420;8.390;2023-04-07T11:30:35;1.80;;;1.45;;
20535;SDS011;10426;49.420;8.390;2023-04-07T11:33:02;1.23;;;1.23;;
20535;SDS011;10426;49.420;8.390;2023-04-07T11:35:28;1.63;;;1.60;;
20535;SDS011;10426;49.420;8.390;2023-04-07T11:37:56;1.88;;;1.77;;
20535;SDS011;10426;49.420;8.390;2023-04-07T11:40:34;1.75;;;1.70;;
20535;SDS011;10426;49.420;8.390;2023-04-07T11:43:01;1.52;;;1.52;;
20535;SDS011;10426;49.420;8.390;2023-04-07T11:45:28;1.40;;;1.30;;
20535;SDS011;10426;49.420;8.390;2023-04-07T11:47:55;1.00;;;1.00;;
20535;SDS011;10426;49.420;8.390;2023-04-07T11:50:37;1.03;;;1.03;;
20535;SDS011;10426;49.420;8.390;2023-04-07T11:53:04;1.20;;;1.20;;
20535;SDS011;10426;49.420;8.390;2023-04-07T11:55:31;1.10;;;1.10;;
20535;SDS011;10426;49.420;8.390;2023-04-07T11:58:05;1.27;;;1.27;;
20535;SDS011;10426;49.420;8.390;2023-04-07T12:00:34;1.20;;;1.20;;
20535;SDS011;10426;49.420;8.390;2023-04-07T12:03:08;1.25;;;1.15;;
20535;SDS011;10426;49.420;8.390;2023-04-07T12:05:40;1.20;;;1.20;;
20535;SDS011;10426;49.420;8.390;2023-04-07T12:08:07;1.70;;;1.60;;
20535;SDS011;10426;49.420;8.390;2023-04-07T12:10:33;1.15;;;1.15;;
20535;SDS011;10426;49.420;8.390;2023-04-07T12:13:00;1.00;;;1.00;;
20535;SDS011;10426;49.420;8.390;2023-04-07T12:15:28;1.17;;;1.17;;
20535;SDS011;10426;49.420;8.390;2023-04-07T12:17:55;1.40;;;1.20;;
20535;SDS011;10426;49.420;8.390;2023-04-07T12:20:22;1.80;;;1.70;;
20535;SDS011;10426;49.420;8.390;2023-04-07T12:22:48;1.35;;;1.30;;
20535;SDS011;10426;49.420;8.390;2023-04-07T12:25:15;1.40;;;1.40;;
20535;SDS011;10426;49.420;8.390;2023-04-07T12:27:42;1.30;;;1.30;;
20535;SDS011;10426;49.420;8.390;2023-04-07T12:30:09;1.38;;;1.38;;
20535;SDS011;10426;49.420;8.390;2023-04-07T12:32:37;1.20;;;1.20;;
20535;SDS011;10426;49.420;8.390;2023-04-07T12:35:04;1.23;;;1.23;;
20535;SDS011;10426;49.420;8.390;2023-04-07T12:37:31;1.27;;;1.27;;
20535;SDS011;10426;49.420;8.390;2023-04-07T12:39:58;1.08;;;1.08;;
20535;SDS011;10426;49.420;8.390;2023-04-07T12:42:25;1.30;;;1.30;;
20535;SDS011;10426;49.420;8.390;2023-04-07T12:44:51;1.10;;;1.10;;
20535;SDS011;10426;49.420;8.390;2023-04-07T12:47:18;1.10;;;1.10;;
20535;SDS011;10426;49.420;8.390;2023-04-07T12:49:46;1.10;;;1.10;;
20535;SDS011;10426;49.420;8.390;2023-04-07T12:52:13;1.00;;;1.00;;
20535;SDS011;10426;49.420;8.390;2023-04-07T12:54:39;1.00;;;1.00;;
20535;SDS011;10426;49.420;8.390;2023-04-07T12:57:07;1.00;;;1.00;;
20535;SDS011;10426;49.420;8.390;2023-04-07T12:59:34;0.70;;;0.70;;
20535;SDS011;10426;49.420;8.390;2023-04-07T13:02:01;0.60;;;0.60;;
20535;SDS011;10426;49.420;8.390;2023-04-07T13:04:28;0.70;;;0.70;;
20535;SDS011;10426;49.420;8.390;2023-04-07T13:06:57;0.70;;;0.70;;
20535;SDS011;10426;49.420;8.390;2023-04-07T13:09:24;0.90;;;0.90;;
20535;SDS011;10426;49.420;8.390;2023-04-07T13:11:50;0.80;;;0.80;;
20535;SDS011;10426;49.420;8.390;2023-04-07T13:14:17;0.87;;;0.87;;
20535;SDS011;10426;49.420;8.390;2023-04-07T13:16:44;0.80;;;0.80;;
20535;SDS011;10426;49.420;8.390;2023-04-07T13:19:10;1.98;;;0.90;;
20535;SDS011;10426;49.420;8.390;2023-04-07T13:21:37;1.02;;;1.02;;
20535;SDS011;10426;49.420;8.390;2023-04-07T13:24:05;1.10;;;1.10;;
20535;SDS011;10426;49.420;8.390;2023-04-07T13:26:32;1.00;;;1.00;;
20535;SDS011;10426;49.420;8.390;2023-04-07T13:28:58;1.20;;;1.20;;
20535;SDS011;10426;49.420;8.390;2023-04-07T13:31:25;1.33;;;1.33;;
20535;SDS011;10426;49.420;8.390;2023-04-07T13:33:52;1.50;;;1.40;;
20535;SDS011;10426;49.420;8.390;2023-04-07T13:36:19;1.30;;;1.30;;
20535;SDS011;10426;49.420;8.390;2023-04-07T13:38:46;1.50;;;1.50;;
20535;SDS011;10426;49.420;8.390;2023-04-07T13:41:14;1.50;;;1.50;;
20535;SDS011;10426;49.420;8.390;2023-04-07T13:43:40;1.80;;;1.70;;
20535;SDS011;10426;49.420;8.390;2023-04-07T13:46:07;1.60;;;1.60;;
20535;SDS011;10426;49.420;8.390;2023-04-07T13:48:34;1.50;;;1.40;;
20535;SDS011;10426;49.420;8.390;2023-04-07T13:51:00;1.60;;;1.60;;
20535;SDS011;10426;49.420;8.390;2023-04-07T13:53:27;1.50;;;1.50;;
20535;SDS011;10426;49.420;8.390;2023-04-07T13:55:53;2.00;;;1.90;;
20535;SDS011;10426;49.420;8.390;2023-04-07T13:58:21;1.90;;;1.80;;
20535;SDS011;10426;49.420;8.390;2023-04-07T14:00:48;1.70;;;1.70;;
20535;SDS011;10426;49.420;8.390;2023-04-07T14:03:15;2.25;;;2.15;;
20535;SDS011;10426;49.420;8.390;2023-04-07T14:05:42;2.38;;;2.28;;
20535;SDS011;10426;49.420;8.390;2023-04-07T14:08:09;2.13;;;2.03;;
20535;SDS011;10426;49.420;8.390;2023-04-07T14:10:35;2.58;;;2.47;;
20535;SDS011;10426;49.420;8.390;2023-04-07T14:13:02;2.43;;;2.33;;
20535;SDS011;10426;49.420;8.390;2023-04-07T14:15:30;2.10;;;2.10;;
20535;SDS011;10426;49.420;8.390;2023-04-07T14:17:56;2.47;;;2.42;;
20535;SDS011;10426;49.420;8.390;2023-04-07T14:20:24;2.15;;;2.05;;
20535;SDS011;10426;49.420;8.390;2023-04-07T14:22:50;2.25;;;2.15;;
20535;SDS011;10426;49.420;8.390;2023-04-07T14:25:17;2.33;;;2.28;;
20535;SDS011;10426;49.420;8.390;2023-04-07T14:27:44;2.92;;;2.83;;
20535;SDS011;10426;49.420;8.390;2023-04-07T14:30:11;3.40;;;3.20;;
20535;SDS011;10426;49.420;8.390;2023-04-07T14:32:39;3.50;;;3.30;;
20535;SDS011;10426;49.420;8.390;2023-04-07T14:35:06;3.67;;;3.47;;
20535;SDS011;10426;49.420;8.390;2023-04-07T14:37:33;3.35;;;3.20;;
20535;SDS011;10426;49.420;8.390;2023-04-07T14:40:00;3.17;;;3.05;;
20535;SDS011;10426;49.420;8.390;2023-04-07T14:42:27;3.38;;;3.28;;
20535;SDS011;10426;49.420;8.390;2023-04-07T14:44:54;3.30;;;3.20;;
20535;SDS011;10426;49.420;8.390;2023-04-07T14:47:21;3.13;;;3.03;;
20535;SDS011;10426;49.420;8.390;2023-04-07T14:49:49;2.80;;;2.70;;
20535;SDS011;10426;49.420;8.390;2023-04-07T14:52:15;3.10;;;3.00;;
20535;SDS011;10426;49.420;8.390;2023-04-07T14:54:42;3.70;;;3.50;;